Hovedside
METAR-TAF:

METAR-TAF

Lufthavner :

Miyazaki, Japan

breddegrad: 31-52N, lengdegrad: 131-27E, høyde over havet: 6 m

Gjeldene værobservasjon

Denne rapporten ble laget for 52 minutter siden, klokken 00:00 UTC
Vind 8 kt fra Nord-nordøst
Temperatur 25°C
Luftfuktighet 74%
Trykk 1005 hPa
Sikt 10 km eller mer
Få skyer i en høyde av 1500 ft
Brutte skyer i en høyde av 9000 ft

METAR: RJFM 130000Z 02008KT 9999 FEW015 BKN090 25/20 Q1005

Tid: 09:52 (00:52 UTC)

Varsel

Denne rapporten ble laget for 1 time og 47 minutter siden, klokken 23:05 UTC
Varsel gyldig fra 13. klokken 00 UTC til 14. klokken 06 UTC
Vind 7 kt fra Øst-nordøst
Sikt 10 km eller mer
Få skyer i en høyde av 3000 ft
Blir
fra 13. klokken 12 UTC til 13. klokken 15 UTC
Vind 5 kt fra Vest
Blir
fra 14. klokken 00 UTC til 14. klokken 03 UTC
Vind 5 kt fra Øst

TAF: RJFM 122305Z 1300/1406 07007KT 9999 FEW030 BECMG 1312/1315 28005KT BECMG 1400/1403 08005KT

Værobservasjoner og værvarsel for over 4000 flyplasser (METAR- og TAF-rapporter).

Tilgjengelige stasjoner er representert av de røde og gule prikkene på kartet.

Hold musepekeren over prikken for å se navnet på stasjonen.

Klikk så for å se værobservasjoner og -varsler.

For å forandre kartet kan du klikke på den grønne knappen med svart kryss for å zoome inn, på den grønne knappen med strek for å zoome ut, eller på de grønne pilene for å se tilstøtende kart.


METAR-TAF: